createdAt,value
2018-12-13T00:00:44.380Z,101350.58
2018-12-13T00:03:12.513Z,101346.43
2018-12-13T00:05:40.741Z,101342.25
2018-12-13T00:08:08.960Z,101342.68
2018-12-13T00:10:37.195Z,101336.48
2018-12-13T00:13:05.305Z,101336.84
2018-12-13T00:15:33.741Z,101331.30
2018-12-13T00:18:01.913Z,101331.84
2018-12-13T00:20:30.207Z,101331.16
2018-12-13T00:22:58.283Z,101329.69
2018-12-13T00:25:26.525Z,101333.06
2018-12-13T00:27:54.839Z,101332.63
2018-12-13T00:30:23.160Z,101336.66
2018-12-13T00:32:51.561Z,101328.94
2018-12-13T00:35:19.892Z,101331.03
2018-12-13T00:37:48.172Z,101326.00
2018-12-13T00:40:16.474Z,101323.76
2018-12-13T00:42:44.582Z,101327.74
2018-12-13T00:45:12.683Z,101317.66
2018-12-13T00:47:41.006Z,101317.78
2018-12-13T00:50:09.353Z,101318.64
2018-12-13T00:52:37.625Z,101318.30
2018-12-13T00:55:06.084Z,101312.05
2018-12-13T00:57:34.240Z,101312.23
2018-12-13T01:00:02.421Z,101304.27
2018-12-13T01:02:30.725Z,101302.45
2018-12-13T01:04:58.854Z,101304.23
2018-12-13T01:07:27.177Z,101302.92
2018-12-13T01:09:55.279Z,101300.39
2018-12-13T01:12:23.478Z,101295.66
2018-12-13T01:14:51.605Z,101291.51
2018-12-13T01:17:19.928Z,101301.08
2018-12-13T01:19:48.039Z,101304.20
2018-12-13T01:22:16.098Z,101299.62
2018-12-13T01:24:44.326Z,101299.78
2018-12-13T01:27:12.460Z,101303.91
2018-12-13T01:29:40.594Z,101309.01
2018-12-13T01:32:08.845Z,101306.41
2018-12-13T01:34:36.991Z,101307.95
2018-12-13T01:37:05.116Z,101303.78
2018-12-13T01:39:33.193Z,101298.23
2018-12-13T01:42:01.515Z,101291.75
2018-12-13T01:44:29.682Z,101294.87
2018-12-13T01:46:57.836Z,101283.67
2018-12-13T01:49:25.985Z,101285.88
2018-12-13T01:51:54.138Z,101289.06
2018-12-13T01:54:22.247Z,101282.05
2018-12-13T01:56:50.404Z,101286.68
2018-12-13T01:59:18.524Z,101287.70
2018-12-13T02:01:46.868Z,101286.67
2018-12-13T02:04:15.150Z,101290.89
2018-12-13T02:06:43.330Z,101285.09
2018-12-13T02:09:11.604Z,101294.06
2018-12-13T02:11:39.916Z,101285.23
2018-12-13T02:14:08.044Z,101280.09
2018-12-13T02:16:36.140Z,101281.70
2018-12-13T02:19:04.567Z,101282.27
2018-12-13T02:21:32.684Z,101274.69
2018-12-13T02:24:02.098Z,101272.12
2018-12-13T02:26:30.500Z,101274.89
2018-12-13T02:28:58.775Z,101274.47
2018-12-13T02:31:27.054Z,101271.24
2018-12-13T02:33:58.830Z,101271.05
2018-12-13T02:36:27.164Z,101273.28
2018-12-13T02:38:55.406Z,101267.82
2018-12-13T02:41:23.613Z,101266.44
2018-12-13T02:43:52.529Z,101265.67
2018-12-13T02:46:20.708Z,101265.53
2018-12-13T02:48:54.268Z,101265.39
2018-12-13T02:51:22.421Z,101261.83
2018-12-13T02:53:50.686Z,101268.95
2018-12-13T02:56:18.809Z,101260.22
2018-12-13T02:58:46.917Z,101258.04
2018-12-13T03:01:15.055Z,101255.52
2018-12-13T03:03:43.413Z,101263.72
2018-12-13T03:06:11.568Z,101264.34
2018-12-13T03:08:39.652Z,101261.11
2018-12-13T03:11:07.799Z,101262.94
2018-12-13T03:13:35.905Z,101258.17
2018-12-13T03:16:04.402Z,101255.18
2018-12-13T03:18:32.727Z,101247.98
2018-12-13T03:21:00.838Z,101242.37
2018-12-13T03:23:29.323Z,101241.47
2018-12-13T03:25:57.527Z,101241.68
2018-12-13T03:28:25.811Z,101239.07
2018-12-13T03:30:53.952Z,101237.56
2018-12-13T03:33:22.378Z,101236.34
2018-12-13T03:35:50.461Z,101232.78
2018-12-13T03:38:18.819Z,101233.56
2018-12-13T03:40:46.949Z,101232.84
2018-12-13T03:43:15.218Z,101230.88
2018-12-13T03:45:43.426Z,101232.31
2018-12-13T03:48:11.544Z,101232.01
2018-12-13T03:50:39.786Z,101232.25
2018-12-13T03:53:08.092Z,101228.86
2018-12-13T03:55:36.237Z,101225.36
2018-12-13T03:58:04.478Z,101223.92
2018-12-13T04:00:32.615Z,101225.78
2018-12-13T04:03:00.950Z,101219.22
2018-12-13T04:05:30.325Z,101218.02
2018-12-13T04:07:58.492Z,101221.05
2018-12-13T04:10:26.816Z,101216.65
2018-12-13T04:12:55.092Z,101211.53
2018-12-13T04:15:23.227Z,101208.12
2018-12-13T04:17:51.384Z,101206.69
2018-12-13T04:20:19.740Z,101212.36
2018-12-13T04:22:47.887Z,101213.64
2018-12-13T04:25:16.218Z,101207.45
2018-12-13T04:27:44.309Z,101215.64
2018-12-13T04:30:12.760Z,101218.45
2018-12-13T04:32:40.981Z,101206.77
2018-12-13T04:35:09.163Z,101203.83
2018-12-13T04:37:37.440Z,101199.09
2018-12-13T04:40:05.862Z,101198.80
2018-12-13T04:42:33.971Z,101201.53
2018-12-13T04:45:02.520Z,101199.30
2018-12-13T04:47:30.625Z,101196.97
2018-12-13T04:49:59.034Z,101199.08
2018-12-13T04:52:27.208Z,101202.23
2018-12-13T04:54:55.536Z,101193.42
2018-12-13T04:57:24.572Z,101194.97
2018-12-13T04:59:52.745Z,101190.27
2018-12-13T05:02:20.916Z,101188.39
2018-12-13T05:04:49.198Z,101182.78
2018-12-13T05:07:17.319Z,101182.13
2018-12-13T05:09:52.418Z,101181.24
2018-12-13T05:12:20.745Z,101190.34
2018-12-13T05:14:48.857Z,101185.64
2018-12-13T05:17:16.985Z,101181.72
2018-12-13T05:19:45.234Z,101185.98
2018-12-13T05:22:13.370Z,101194.65
2018-12-13T05:24:41.551Z,101182.76
2018-12-13T05:27:09.797Z,101181.77
2018-12-13T05:29:38.111Z,101182.25
2018-12-13T05:32:06.906Z,101177.23
2018-12-13T05:34:35.233Z,101178.41
2018-12-13T05:37:03.380Z,101182.87
2018-12-13T05:39:31.824Z,101174.23
2018-12-13T05:41:59.957Z,101178.08
2018-12-13T05:44:28.645Z,101182.00
2018-12-13T05:46:57.107Z,101171.20
2018-12-13T05:49:25.463Z,101174.49
2018-12-13T05:51:54.281Z,101170.33
2018-12-13T05:54:22.898Z,101176.27
2018-12-13T05:56:51.145Z,101173.20
2018-12-13T05:59:19.455Z,101175.16
2018-12-13T06:01:48.849Z,101174.46
2018-12-13T06:04:17.008Z,101172.58
2018-12-13T06:06:45.154Z,101175.49
2018-12-13T06:09:13.336Z,101168.44
2018-12-13T06:11:41.604Z,101182.47
2018-12-13T06:14:09.750Z,101180.22
2018-12-13T06:16:37.958Z,101176.63
2018-12-13T06:19:06.128Z,101183.12
2018-12-13T06:21:37.005Z,101182.50
2018-12-13T06:24:04.620Z,101186.94
2018-12-13T06:26:32.726Z,101180.30
2018-12-13T06:29:00.976Z,101178.78
2018-12-13T06:31:29.252Z,101177.53
2018-12-13T06:33:57.497Z,101176.67
2018-12-13T06:36:25.778Z,101178.97
2018-12-13T06:38:53.941Z,101178.08
2018-12-13T06:41:23.019Z,101189.34
2018-12-13T06:43:52.326Z,101184.14
2018-12-13T06:46:20.937Z,101185.02
2018-12-13T06:48:49.089Z,101185.76
2018-12-13T06:51:17.232Z,101189.64
2018-12-13T06:53:45.303Z,101187.72
2018-12-13T06:56:13.439Z,101180.89
2018-12-13T06:58:41.585Z,101184.80
2018-12-13T07:01:10.039Z,101188.34
2018-12-13T07:03:38.203Z,101191.56
2018-12-13T07:06:06.365Z,101187.76
2018-12-13T07:08:34.671Z,101187.76
2018-12-13T07:11:03.010Z,101182.77
2018-12-13T07:13:31.196Z,101179.26
2018-12-13T07:15:59.532Z,101187.50
2018-12-13T07:18:27.690Z,101190.67
2018-12-13T07:20:55.894Z,101184.98
2018-12-13T07:23:24.103Z,101182.52
2018-12-13T07:25:52.235Z,101179.23
2018-12-13T07:28:20.441Z,101173.42
2018-12-13T07:30:48.781Z,101173.34
2018-12-13T07:33:16.988Z,101179.08
2018-12-13T07:35:45.169Z,101183.91
2018-12-13T07:38:14.472Z,101188.75
2018-12-13T07:40:43.220Z,101188.49
2018-12-13T07:43:11.348Z,101181.41
2018-12-13T07:45:39.518Z,101184.91
2018-12-13T07:48:07.896Z,101172.98
2018-12-13T07:50:36.056Z,101171.91
2018-12-13T07:53:04.361Z,101170.95
2018-12-13T07:55:32.465Z,101171.39
2018-12-13T07:58:00.586Z,101166.58
2018-12-13T08:00:28.956Z,101163.12
2018-12-13T08:02:57.326Z,101164.15
2018-12-13T08:05:27.578Z,101163.73
2018-12-13T08:07:55.859Z,101165.36
2018-12-13T08:10:24.010Z,101167.53
2018-12-13T08:12:52.175Z,101161.61
2018-12-13T08:15:21.566Z,101160.62
2018-12-13T08:17:49.663Z,101165.84
2018-12-13T08:20:17.872Z,101164.25
2018-12-13T08:22:46.247Z,101162.13
2018-12-13T08:25:14.368Z,101171.69
2018-12-13T08:27:42.518Z,101166.28
2018-12-13T08:30:10.856Z,101170.00
2018-12-13T08:32:39.237Z,101163.78
2018-12-13T08:35:07.602Z,101164.07
2018-12-13T08:37:35.694Z,101164.34
2018-12-13T08:40:04.956Z,101165.28
2018-12-13T08:42:33.076Z,101158.87
2018-12-13T08:45:01.229Z,101159.58
2018-12-13T08:47:29.360Z,101153.70
2018-12-13T08:49:57.465Z,101158.24
2018-12-13T08:52:25.637Z,101157.72
2018-12-13T08:54:53.749Z,101160.51
2018-12-13T08:57:21.875Z,101165.29
2018-12-13T08:59:49.983Z,101152.41
2018-12-13T09:02:18.259Z,101160.91
2018-12-13T09:04:46.369Z,101161.00
2018-12-13T09:07:14.431Z,101157.85
2018-12-13T09:09:42.629Z,101157.23
2018-12-13T09:12:10.758Z,101161.78
2018-12-13T09:14:38.925Z,101167.65
2018-12-13T09:17:07.030Z,101157.23
2018-12-13T09:19:35.258Z,101154.75
2018-12-13T09:22:03.624Z,101151.06
2018-12-13T09:24:31.736Z,101149.53
2018-12-13T09:26:59.888Z,101140.91
2018-12-13T09:29:28.147Z,101147.20
2018-12-13T09:31:56.250Z,101147.94
2018-12-13T09:34:24.474Z,101144.00
2018-12-13T09:36:52.635Z,101135.22
2018-12-13T09:39:20.798Z,101138.41
2018-12-13T09:41:49.142Z,101137.20
2018-12-13T09:44:17.302Z,101127.98
2018-12-13T09:46:46.590Z,101131.70
2018-12-13T09:49:14.823Z,101122.05
2018-12-13T09:51:43.037Z,101119.75
2018-12-13T09:54:11.134Z,101118.09
2018-12-13T09:56:39.336Z,101113.77
2018-12-13T09:59:07.445Z,101114.52
2018-12-13T10:01:35.574Z,101112.61
2018-12-13T10:04:03.906Z,101116.66
2018-12-13T10:06:32.114Z,101113.26
2018-12-13T10:09:00.259Z,101115.13
2018-12-13T10:11:28.556Z,101110.36
2018-12-13T10:13:56.711Z,101107.28
2018-12-13T10:16:24.965Z,101101.67
2018-12-13T10:18:53.142Z,101103.66
2018-12-13T10:21:21.305Z,101101.14
2018-12-13T10:23:49.424Z,101097.30
2018-12-13T10:26:17.723Z,101094.97
2018-12-13T10:28:45.915Z,101087.66
2018-12-13T10:31:14.336Z,101090.64
2018-12-13T10:33:42.504Z,101089.51
2018-12-13T10:36:10.727Z,101090.64
2018-12-13T10:38:39.028Z,101090.59
2018-12-13T10:41:07.090Z,101087.02
2018-12-13T10:43:35.212Z,101096.38
2018-12-13T10:46:03.310Z,101101.03
2018-12-13T10:48:31.870Z,101095.01
2018-12-13T10:51:00.106Z,101101.90
2018-12-13T10:53:28.232Z,101094.13
2018-12-13T10:55:56.337Z,101090.59
2018-12-13T10:58:24.511Z,101086.02
2018-12-13T11:00:58.503Z,101083.56
2018-12-13T11:03:41.452Z,101082.38
2018-12-13T11:06:09.594Z,101078.18
2018-12-13T11:08:37.782Z,101087.87
2018-12-13T11:11:06.034Z,101075.29
2018-12-13T11:13:34.183Z,101076.75
2018-12-13T11:16:02.358Z,101066.81
2018-12-13T11:18:30.530Z,101068.89
2018-12-13T11:20:58.680Z,101056.38
2018-12-13T11:23:26.824Z,101056.27
2018-12-13T11:25:54.968Z,101055.42
2018-12-13T11:29:39.554Z,101054.94
2018-12-13T11:32:07.659Z,101055.94
2018-12-13T11:34:36.329Z,101049.11
2018-12-13T11:37:04.532Z,101053.05
2018-12-13T11:39:32.620Z,101050.02
2018-12-13T11:42:00.710Z,101053.47
2018-12-13T11:44:29.897Z,101046.67
2018-12-13T11:46:58.229Z,101049.14
2018-12-13T11:49:26.440Z,101044.39
2018-12-13T11:51:54.566Z,101046.16
2018-12-13T11:54:55.543Z,101040.27
2018-12-13T11:57:24.371Z,101048.75
2018-12-13T11:59:52.521Z,101042.37
2018-12-13T12:02:24.026Z,101040.22
2018-12-13T12:04:50.683Z,101042.67
2018-12-13T12:07:18.858Z,101038.47
2018-12-13T12:09:46.940Z,101034.60
2018-12-13T12:12:15.061Z,101039.84
2018-12-13T12:14:43.193Z,101040.06
2018-12-13T12:17:11.278Z,101028.61
2018-12-13T12:19:39.397Z,101035.03
2018-12-13T12:22:07.540Z,101033.20
2018-12-13T12:24:35.696Z,101031.84
2018-12-13T12:27:03.902Z,101031.25
2018-12-13T12:29:31.969Z,101029.34
2018-12-13T12:32:00.104Z,101025.82
2018-12-13T12:34:28.250Z,101024.75
2018-12-13T12:36:56.370Z,101022.63
2018-12-13T12:39:24.504Z,101030.89
2018-12-13T12:41:52.664Z,101025.72
2018-12-13T12:44:20.798Z,101024.36
2018-12-13T12:46:48.903Z,101022.83
2018-12-13T12:49:16.996Z,101024.00
2018-12-13T12:51:45.139Z,101026.86
2018-12-13T12:54:13.276Z,101016.75
2018-12-13T12:56:41.498Z,101017.72
2018-12-13T12:59:09.592Z,101012.52
2018-12-13T13:01:37.902Z,101010.94
2018-12-13T13:04:06.153Z,101007.30
2018-12-13T13:06:34.316Z,101004.31
2018-12-13T13:09:03.812Z,100997.94
2018-12-13T13:11:31.933Z,101000.48
2018-12-13T13:14:00.119Z,100995.91
2018-12-13T13:16:28.285Z,101005.08
2018-12-13T13:18:56.553Z,100999.91
2018-12-13T13:21:24.667Z,100998.09
2018-12-13T13:23:52.739Z,101010.00
2018-12-13T13:26:20.915Z,100999.59
2018-12-13T13:28:49.118Z,100998.09
2018-12-13T13:31:18.599Z,100987.39
2018-12-13T13:33:47.230Z,100996.92
2018-12-13T13:36:15.566Z,100995.55
2018-12-13T13:38:43.703Z,100993.16
2018-12-13T13:41:11.880Z,100994.13
2018-12-13T13:43:43.116Z,100999.37
2018-12-13T13:46:12.640Z,101001.44
2018-12-13T13:48:41.822Z,100993.80
2018-12-13T13:51:09.948Z,100992.11
2018-12-13T13:53:38.050Z,100996.80
2018-12-13T13:56:06.212Z,100992.68
2018-12-13T13:58:34.480Z,101001.08
2018-12-13T14:01:02.672Z,101003.57
2018-12-13T14:03:30.776Z,101008.74
2018-12-13T14:05:59.307Z,101011.88
2018-12-13T14:08:27.410Z,101001.23
2018-12-13T14:10:55.607Z,101001.22
2018-12-13T14:13:23.707Z,101002.98
2018-12-13T14:15:51.949Z,101003.95
2018-12-13T14:18:20.106Z,101003.63
2018-12-13T14:20:48.353Z,101001.77
2018-12-13T14:23:17.613Z,101006.73
2018-12-13T14:25:45.769Z,101013.43
2018-12-13T14:28:13.905Z,101015.09
2018-12-13T14:30:42.158Z,101008.00
2018-12-13T14:33:10.686Z,101007.09
2018-12-13T14:35:39.123Z,101004.64
2018-12-13T14:38:07.249Z,101008.75
2018-12-13T14:40:35.352Z,101008.16
2018-12-13T14:43:03.554Z,101005.86
2018-12-13T14:45:31.747Z,101010.14
2018-12-13T14:47:59.889Z,101005.19
2018-12-13T14:50:28.090Z,101005.98
2018-12-13T14:52:56.223Z,101005.49
2018-12-13T14:55:24.338Z,101005.06
2018-12-13T14:57:52.501Z,101002.41
2018-12-13T15:00:20.706Z,101000.54
2018-12-13T15:02:48.805Z,101003.78
2018-12-13T15:05:16.983Z,100997.66
2018-12-13T15:07:45.145Z,101007.99
2018-12-13T15:10:13.261Z,100998.41
2018-12-13T15:12:41.444Z,101006.73
2018-12-13T15:15:09.845Z,100997.02
2018-12-13T15:17:39.227Z,100997.22
2018-12-13T15:20:09.545Z,101003.30
2018-12-13T15:22:37.724Z,101002.20
2018-12-13T15:25:07.555Z,101005.86
2018-12-13T15:27:35.843Z,101003.16
2018-12-13T15:30:04.811Z,101000.71
2018-12-13T15:32:32.963Z,101005.45
2018-12-13T15:35:01.107Z,101008.04
2018-12-13T15:37:36.313Z,101004.70
2018-12-13T15:40:04.804Z,101000.60
2018-12-13T15:42:32.898Z,101006.55
2018-12-13T15:45:01.032Z,101005.86
2018-12-13T15:47:29.171Z,101002.62
2018-12-13T15:49:57.398Z,101005.66
2018-12-13T15:52:25.525Z,101001.41
2018-12-13T15:54:53.694Z,101004.22
2018-12-13T15:57:21.752Z,101012.21
2018-12-13T15:59:49.942Z,101006.34
2018-12-13T16:02:18.031Z,101006.20
2018-12-13T16:04:46.158Z,101006.07
2018-12-13T16:07:14.215Z,101008.28
2018-12-13T16:09:42.427Z,101015.41
2018-12-13T16:12:10.635Z,101017.09
2018-12-13T16:14:38.758Z,101008.22
2018-12-13T16:17:07.034Z,101004.42
2018-12-13T16:19:35.109Z,101010.02
2018-12-13T16:22:03.343Z,101009.39
2018-12-13T16:24:31.459Z,101010.19
2018-12-13T16:26:59.585Z,101013.73
2018-12-13T16:29:27.671Z,101008.03
2018-12-13T16:31:59.699Z,101006.41
2018-12-13T16:34:27.786Z,101006.16
2018-12-13T16:36:56.316Z,101010.08
2018-12-13T16:39:24.425Z,101008.68
2018-12-13T16:41:52.713Z,101014.34
2018-12-13T16:44:21.632Z,101011.08
2018-12-13T16:46:49.893Z,101015.80
2018-12-13T16:49:18.899Z,101010.44
2018-12-13T16:51:47.088Z,101008.30
2018-12-13T16:54:15.304Z,101009.59
2018-12-13T16:56:43.430Z,101006.06
2018-12-13T16:59:11.521Z,101014.65
2018-12-13T17:01:40.726Z,101017.00
2018-12-13T17:04:08.888Z,101015.52
2018-12-13T17:06:37.126Z,101013.27
2018-12-13T17:09:06.880Z,101013.85
2018-12-13T17:11:35.350Z,101013.89
2018-12-13T17:14:03.556Z,101013.56
2018-12-13T17:16:31.682Z,101008.89
2018-12-13T17:18:59.756Z,101010.33
2018-12-13T17:21:27.860Z,101010.02
2018-12-13T17:23:56.014Z,101006.07
2018-12-13T17:26:24.207Z,101015.39
2018-12-13T17:28:52.322Z,101017.36
2018-12-13T17:31:20.554Z,101015.34
2018-12-13T17:33:48.664Z,101015.91
2018-12-13T17:36:16.777Z,101010.61
2018-12-13T17:38:45.643Z,101014.34
2018-12-13T17:41:13.991Z,101005.64
2018-12-13T17:43:42.070Z,101013.70
2018-12-13T17:46:10.307Z,101011.19
2018-12-13T17:48:38.458Z,101009.42
2018-12-13T17:51:07.089Z,101012.17
2018-12-13T17:53:35.561Z,101005.75
2018-12-13T17:56:04.395Z,101013.51
2018-12-13T17:58:32.678Z,101009.84
2018-12-13T18:01:03.097Z,101005.85
2018-12-13T18:03:31.260Z,101011.61
2018-12-13T18:06:00.356Z,101007.92
2018-12-13T18:08:29.241Z,101013.99
2018-12-13T18:10:57.386Z,101015.41
2018-12-13T18:13:26.278Z,101018.93
2018-12-13T18:15:54.476Z,101012.87
2018-12-13T18:18:23.157Z,101012.02
2018-12-13T18:20:51.827Z,101010.52
2018-12-13T18:23:22.158Z,101015.78
2018-12-13T18:25:50.325Z,101016.50
2018-12-13T18:28:19.499Z,101018.39
2018-12-13T18:30:47.605Z,101023.58
2018-12-13T18:33:16.555Z,101022.77
2018-12-13T18:35:45.266Z,101027.66
2018-12-13T18:38:20.437Z,101031.27
2018-12-13T18:40:48.621Z,101019.16
2018-12-13T18:43:16.731Z,101017.57
2018-12-13T18:45:44.840Z,101027.94
2018-12-13T18:48:13.771Z,101026.14
2018-12-13T18:50:41.905Z,101024.48
2018-12-13T18:53:11.257Z,101031.56
2018-12-13T18:55:39.687Z,101023.87
2018-12-13T18:58:07.821Z,101019.87
2018-12-13T19:00:36.766Z,101021.41
2018-12-13T19:03:05.604Z,101017.81
2018-12-13T19:05:34.336Z,101022.12
2018-12-13T19:08:02.571Z,101025.20
2018-12-13T19:10:30.765Z,101025.27
2018-12-13T19:12:58.899Z,101029.33
2018-12-13T19:15:27.109Z,101021.44
2018-12-13T19:17:55.235Z,101033.03
2018-12-13T19:20:23.957Z,101023.56
2018-12-13T19:22:52.845Z,101025.25
2018-12-13T19:25:20.976Z,101023.84
2018-12-13T19:27:49.191Z,101016.66
2018-12-13T19:30:17.687Z,101026.85
2018-12-13T19:32:45.944Z,101031.72
2018-12-13T19:35:19.331Z,101030.15
2018-12-13T19:37:44.320Z,101028.41
2018-12-13T19:40:12.524Z,101027.55
2018-12-13T19:42:40.723Z,101030.52
2018-12-13T19:45:08.861Z,101031.48
2018-12-13T19:47:37.099Z,101038.19
2018-12-13T19:50:05.686Z,101034.53
2018-12-13T19:52:33.831Z,101041.97
2018-12-13T19:55:01.916Z,101051.28
2018-12-13T19:57:30.805Z,101037.02
2018-12-13T19:59:58.986Z,101042.33
2018-12-13T20:02:27.138Z,101043.97
2018-12-13T20:04:55.328Z,101044.09
2018-12-13T20:07:23.660Z,101048.14
2018-12-13T20:09:51.762Z,101047.25
2018-12-13T20:12:20.009Z,101039.46
2018-12-13T20:14:49.050Z,101047.53
2018-12-13T20:17:17.273Z,101043.15
2018-12-13T20:19:45.364Z,101048.86
2018-12-13T20:22:13.521Z,101047.50
2018-12-13T20:24:41.614Z,101048.38
2018-12-13T20:27:09.794Z,101049.95
2018-12-13T20:29:38.566Z,101057.30
2018-12-13T20:34:55.287Z,101048.69
2018-12-13T20:37:23.766Z,101039.70
2018-12-13T20:39:51.855Z,101043.84
2018-12-13T20:42:20.017Z,101050.95
2018-12-13T20:44:48.131Z,101052.52
2018-12-13T20:47:16.268Z,101054.06
2018-12-13T20:49:44.354Z,101064.82
2018-12-13T20:52:12.473Z,101061.59
2018-12-13T20:54:40.574Z,101063.22
2018-12-13T20:57:08.688Z,101060.59
2018-12-13T20:59:36.814Z,101059.80
2018-12-13T21:02:05.364Z,101060.95
2018-12-13T21:04:33.507Z,101052.12
2018-12-13T21:07:07.500Z,101059.17
2018-12-13T21:09:35.647Z,101060.02
2018-12-13T21:12:03.866Z,101058.00
2018-12-13T21:14:32.231Z,101049.14
2018-12-13T21:17:00.340Z,101057.27
2018-12-13T21:19:28.450Z,101058.78
2018-12-13T21:21:56.588Z,101055.42
2018-12-13T21:24:24.697Z,101055.64
2018-12-13T21:26:52.931Z,101053.38
2018-12-13T21:29:21.018Z,101052.75
2018-12-13T21:31:49.194Z,101053.94
2018-12-13T21:34:17.337Z,101061.89
2018-12-13T21:36:45.480Z,101051.98
2018-12-13T21:39:13.665Z,101048.75
2018-12-13T21:41:41.796Z,101048.75
2018-12-13T21:44:09.877Z,101050.25
2018-12-13T21:46:38.031Z,101045.69
2018-12-13T21:49:06.310Z,101042.52
2018-12-13T21:51:34.576Z,101038.58
2018-12-13T21:54:02.841Z,101043.30
2018-12-13T21:56:30.966Z,101039.83
2018-12-13T21:59:03.644Z,101034.05
2018-12-13T22:01:29.382Z,101031.88
2018-12-13T22:03:57.536Z,101035.38
2018-12-13T22:06:25.768Z,101036.87
2018-12-13T22:08:53.891Z,101037.83
2018-12-13T22:11:22.055Z,101046.81
2018-12-13T22:13:50.170Z,101043.81
2018-12-13T22:16:18.472Z,101049.38
2018-12-13T22:18:46.708Z,101044.88
2018-12-13T22:21:14.964Z,101056.52
2018-12-13T22:23:43.139Z,101050.61
2018-12-13T22:26:11.513Z,101056.27
2018-12-13T22:28:40.073Z,101050.70
2018-12-13T22:31:09.663Z,101049.55
2018-12-13T22:33:42.088Z,101054.55
2018-12-13T22:36:10.269Z,101059.87
2018-12-13T22:38:38.438Z,101050.86
2018-12-13T22:41:06.805Z,101057.13
2018-12-13T22:43:35.117Z,101053.91
2018-12-13T22:46:03.818Z,101056.99
2018-12-13T22:48:32.733Z,101054.39
2018-12-13T22:51:02.004Z,101050.02
2018-12-13T22:53:30.181Z,101051.80
2018-12-13T22:55:58.421Z,101046.63
2018-12-13T22:58:26.755Z,101052.52
2018-12-13T23:00:55.167Z,101053.66
2018-12-13T23:03:23.365Z,101059.61
2018-12-13T23:05:51.592Z,101065.66
2018-12-13T23:08:19.807Z,101062.13
2018-12-13T23:10:48.237Z,101059.95
2018-12-13T23:13:16.399Z,101069.88
2018-12-13T23:15:44.535Z,101059.02
2018-12-13T23:18:12.701Z,101054.64
2018-12-13T23:20:40.813Z,101060.98
2018-12-13T23:23:08.961Z,101058.78
2018-12-13T23:25:37.111Z,101060.75
2018-12-13T23:28:05.392Z,101058.30
2018-12-13T23:30:33.499Z,101054.19
2018-12-13T23:33:01.649Z,101051.13
2018-12-13T23:35:29.941Z,101052.91
2018-12-13T23:37:58.157Z,101054.55
2018-12-13T23:40:26.495Z,101045.88
2018-12-13T23:42:55.460Z,101045.94
2018-12-13T23:45:23.655Z,101046.96
2018-12-13T23:47:52.060Z,101046.09
2018-12-13T23:50:20.881Z,101042.66
2018-12-13T23:52:49.203Z,101048.20
2018-12-13T23:55:17.512Z,101043.69
2018-12-13T23:57:45.690Z,101043.81
